createdAt,value
2022-11-20T00:00:50.611Z,22.27
2022-11-20T00:03:18.225Z,22.35
2022-11-20T00:05:45.486Z,21.83
2022-11-20T00:08:12.637Z,21.30
2022-11-20T00:10:40.475Z,22.90
2022-11-20T00:13:08.269Z,22.25
2022-11-20T00:15:35.186Z,22.73
2022-11-20T00:18:02.103Z,22.48
2022-11-20T00:20:28.900Z,24.00
2022-11-20T00:22:55.611Z,22.25
2022-11-20T00:25:22.333Z,23.08
2022-11-20T00:27:49.078Z,23.48
2022-11-20T00:30:15.886Z,22.52
2022-11-20T00:32:42.725Z,24.23
2022-11-20T00:35:09.619Z,21.50
2022-11-20T00:37:36.346Z,21.63
2022-11-20T00:40:03.242Z,23.50
2022-11-20T00:42:29.950Z,23.30
2022-11-20T00:44:56.665Z,24.45
2022-11-20T00:47:23.438Z,23.15
2022-11-20T00:49:50.144Z,22.77
2022-11-20T00:52:16.957Z,23.58
2022-11-20T00:54:43.691Z,24.00
2022-11-20T00:57:10.414Z,21.75
2022-11-20T00:59:37.273Z,24.40
2022-11-20T01:02:04.070Z,21.77
2022-11-20T01:04:31.013Z,23.58
2022-11-20T01:06:57.825Z,23.15
2022-11-20T01:09:24.703Z,24.60
2022-11-20T01:11:51.500Z,24.37
2022-11-20T01:14:20.581Z,22.88
2022-11-20T01:16:50.176Z,21.93
2022-11-20T01:19:23.522Z,22.87
2022-11-20T01:21:53.731Z,21.50
2022-11-20T01:24:22.128Z,22.98
2022-11-20T01:26:50.943Z,21.60
2022-11-20T01:29:22.311Z,21.27
2022-11-20T01:31:49.350Z,22.88
2022-11-20T01:34:19.090Z,22.55
2022-11-20T01:36:46.336Z,21.38
2022-11-20T01:39:16.846Z,22.15
2022-11-20T01:42:08.411Z,23.33
2022-11-20T01:44:59.646Z,21.70
2022-11-20T01:47:32.370Z,22.23
2022-11-20T01:50:05.972Z,20.90
2022-11-20T01:52:55.591Z,21.63
2022-11-20T01:55:29.381Z,21.83
2022-11-20T01:57:56.963Z,22.77
2022-11-20T02:00:24.024Z,21.05
2022-11-20T02:03:04.709Z,20.17
2022-11-20T02:06:00.192Z,21.03
2022-11-20T02:08:27.139Z,21.05
2022-11-20T02:10:53.902Z,21.55
2022-11-20T02:13:39.598Z,20.38
2022-11-20T02:16:09.617Z,21.50
2022-11-20T02:18:37.049Z,22.60
2022-11-20T02:21:15.832Z,21.17
2022-11-20T02:23:57.687Z,22.15
2022-11-20T02:26:27.263Z,21.10
2022-11-20T02:28:55.030Z,21.50
2022-11-20T02:31:21.823Z,22.02
2022-11-20T02:33:48.617Z,22.40
2022-11-20T02:36:16.934Z,23.20
2022-11-20T02:38:44.599Z,22.27
2022-11-20T02:41:11.398Z,22.92
2022-11-20T02:43:38.131Z,23.23
2022-11-20T02:46:08.130Z,21.88
2022-11-20T02:48:34.959Z,22.60
2022-11-20T02:51:01.830Z,24.70
2022-11-20T02:53:28.767Z,22.25
2022-11-20T02:55:55.563Z,23.38
2022-11-20T02:58:22.494Z,23.03
2022-11-20T03:00:51.043Z,22.23
2022-11-20T03:03:17.902Z,23.25
2022-11-20T03:05:44.677Z,23.63
2022-11-20T03:08:11.462Z,23.05
2022-11-20T03:10:38.126Z,22.33
2022-11-20T03:13:04.943Z,22.43
2022-11-20T03:15:31.800Z,23.63
2022-11-20T03:17:58.865Z,22.52
2022-11-20T03:20:25.598Z,22.02
2022-11-20T03:22:55.281Z,22.23
2022-11-20T03:25:23.231Z,21.83
2022-11-20T03:27:50.000Z,23.83
2022-11-20T03:30:16.828Z,22.85
2022-11-20T03:32:43.710Z,22.23
2022-11-20T03:35:10.829Z,22.15
2022-11-20T03:37:37.582Z,22.13
2022-11-20T03:40:04.953Z,20.98
2022-11-20T03:42:46.702Z,22.35
2022-11-20T03:45:22.471Z,21.70
2022-11-20T03:47:49.287Z,21.30
2022-11-20T03:50:16.148Z,21.52
2022-11-20T03:52:43.302Z,21.90
2022-11-20T03:55:10.345Z,22.88
2022-11-20T03:57:37.117Z,20.85
2022-11-20T04:00:06.205Z,20.38
2022-11-20T04:02:33.048Z,20.42
2022-11-20T04:05:00.049Z,21.50
2022-11-20T04:07:26.892Z,21.35
2022-11-20T04:09:53.659Z,20.58
2022-11-20T04:12:20.463Z,20.55
2022-11-20T04:14:47.250Z,21.35
2022-11-20T04:17:13.954Z,20.65
2022-11-20T04:19:40.798Z,20.65
2022-11-20T04:22:07.746Z,22.40
2022-11-20T04:24:34.497Z,21.27
2022-11-20T04:27:01.321Z,20.83
2022-11-20T04:29:28.067Z,20.88
2022-11-20T04:31:54.828Z,21.15
2022-11-20T04:34:21.671Z,20.10
2022-11-20T04:36:48.514Z,21.33
2022-11-20T04:39:16.366Z,22.02
2022-11-20T04:41:43.424Z,20.02
2022-11-20T04:44:10.575Z,21.73
2022-11-20T04:46:40.775Z,20.80
2022-11-20T04:49:09.088Z,18.60
2022-11-20T04:51:36.192Z,20.42
2022-11-20T04:54:03.042Z,18.60
2022-11-20T04:56:30.045Z,19.83
2022-11-20T04:58:56.823Z,20.10
2022-11-20T05:01:25.254Z,18.30
2022-11-20T05:03:52.552Z,18.70
2022-11-20T05:06:22.914Z,19.55
2022-11-20T05:08:49.878Z,17.83
2022-11-20T05:11:20.129Z,18.98
2022-11-20T05:13:47.492Z,18.03
2022-11-20T05:16:20.909Z,18.65
2022-11-20T05:18:48.215Z,17.33
2022-11-20T05:21:15.802Z,17.38
2022-11-20T05:23:43.474Z,16.13
2022-11-20T05:26:18.667Z,17.55
2022-11-20T05:28:45.654Z,17.88
2022-11-20T05:31:15.537Z,16.73
2022-11-20T05:33:43.642Z,17.45
2022-11-20T05:36:11.942Z,16.00
2022-11-20T05:38:39.092Z,16.93
2022-11-20T05:41:20.047Z,15.25
2022-11-20T05:43:48.396Z,16.15
2022-11-20T05:46:17.551Z,15.73
2022-11-20T05:48:45.906Z,15.02
2022-11-20T05:51:15.743Z,14.82
2022-11-20T05:53:48.072Z,15.20
2022-11-20T05:56:18.280Z,14.10
2022-11-20T05:58:46.352Z,13.88
2022-11-20T06:01:19.258Z,12.95
2022-11-20T06:03:48.276Z,15.07
2022-11-20T06:06:16.268Z,13.93
2022-11-20T06:08:43.357Z,14.68
2022-11-20T06:11:11.908Z,14.85
2022-11-20T06:13:42.280Z,12.85
2022-11-20T06:16:10.198Z,14.30
2022-11-20T06:18:37.082Z,12.40
2022-11-20T06:21:15.871Z,13.80
2022-11-20T06:23:43.317Z,12.00
2022-11-20T06:26:13.210Z,13.23
2022-11-20T06:28:40.590Z,12.57
2022-11-20T06:31:08.570Z,12.85
2022-11-20T06:33:35.442Z,12.20
2022-11-20T06:36:07.254Z,12.15
2022-11-20T06:38:35.791Z,11.45
2022-11-20T06:41:03.784Z,11.63
2022-11-20T06:43:30.742Z,11.73
2022-11-20T06:45:59.394Z,11.65
2022-11-20T06:48:28.305Z,12.43
2022-11-20T06:50:55.227Z,11.77
2022-11-20T06:53:23.132Z,10.50
2022-11-20T06:55:52.258Z,11.35
2022-11-20T06:58:19.478Z,10.48
2022-11-20T07:00:46.413Z,10.63
2022-11-20T07:03:13.505Z,11.25
2022-11-20T07:05:41.329Z,10.35
2022-11-20T07:08:08.895Z,10.57
2022-11-20T07:10:36.174Z,10.88
2022-11-20T07:13:03.183Z,10.48
2022-11-20T07:15:30.497Z,11.20
2022-11-20T07:18:00.370Z,10.50
2022-11-20T07:20:27.259Z,11.15
2022-11-20T07:22:57.902Z,11.35
2022-11-20T07:25:29.046Z,10.63
2022-11-20T07:27:59.794Z,11.68
2022-11-20T07:30:29.722Z,11.17
2022-11-20T07:32:57.605Z,10.45
2022-11-20T07:35:25.540Z,9.65
2022-11-20T07:37:52.273Z,10.50
2022-11-20T07:40:19.554Z,9.65
2022-11-20T07:42:53.815Z,9.55
2022-11-20T07:45:22.252Z,10.82
2022-11-20T07:47:49.450Z,9.85
2022-11-20T07:50:16.959Z,9.70
2022-11-20T07:52:44.039Z,10.83
2022-11-20T07:55:11.558Z,14.13
2022-11-20T07:57:38.658Z,19.65
2022-11-20T08:00:08.148Z,20.33
2022-11-20T08:02:40.327Z,19.48
2022-11-20T08:05:08.186Z,18.55
2022-11-20T08:07:39.563Z,16.17
2022-11-20T08:10:07.823Z,29.27
2022-11-20T08:13:10.106Z,21.63
2022-11-20T08:15:38.339Z,22.77
2022-11-20T08:21:03.602Z,30.33
2022-11-20T08:23:30.675Z,21.70
2022-11-20T08:25:57.517Z,19.27
2022-11-20T08:28:24.494Z,13.47
2022-11-20T08:30:51.605Z,19.73
2022-11-20T08:33:19.113Z,16.92
2022-11-20T08:35:46.232Z,17.52
2022-11-20T08:38:13.142Z,14.55
2022-11-20T08:40:40.624Z,14.73
2022-11-20T08:43:07.897Z,13.10
2022-11-20T08:45:35.531Z,12.88
2022-11-20T08:48:03.822Z,11.40
2022-11-20T08:50:32.860Z,14.80
2022-11-20T08:53:04.870Z,13.60
2022-11-20T08:55:31.636Z,12.90
2022-11-20T08:57:58.450Z,11.90
2022-11-20T09:00:25.218Z,8.90
2022-11-20T09:02:53.123Z,13.43
2022-11-20T09:05:19.938Z,9.13
2022-11-20T09:07:46.638Z,10.20
2022-11-20T09:10:28.790Z,12.63
2022-11-20T09:12:56.704Z,9.85
2022-11-20T09:15:24.752Z,7.88
2022-11-20T09:17:56.071Z,7.72
2022-11-20T09:20:23.221Z,12.82
2022-11-20T09:22:50.030Z,8.75
2022-11-20T09:25:17.302Z,8.40
2022-11-20T09:27:46.539Z,9.88
2022-11-20T09:30:17.095Z,7.43
2022-11-20T09:32:44.322Z,7.65
2022-11-20T09:35:12.048Z,9.07
2022-11-20T09:37:39.280Z,6.43
2022-11-20T09:40:06.838Z,6.93
2022-11-20T09:42:55.274Z,7.60
2022-11-20T09:45:46.337Z,8.33
2022-11-20T09:48:16.149Z,7.30
2022-11-20T09:51:09.645Z,6.88
2022-11-20T09:53:57.535Z,8.07
2022-11-20T09:56:24.972Z,6.83
2022-11-20T09:58:55.120Z,7.13
2022-11-20T10:01:30.370Z,5.22
2022-11-20T10:04:12.542Z,6.63
2022-11-20T10:07:30.700Z,6.75
2022-11-20T10:09:56.340Z,7.47
2022-11-20T10:12:58.129Z,5.47
2022-11-20T10:15:39.973Z,5.10
2022-11-20T10:18:24.387Z,5.72
2022-11-20T10:21:05.231Z,4.78
2022-11-20T10:23:48.988Z,6.65
2022-11-20T10:26:53.071Z,5.78
2022-11-20T10:29:28.654Z,5.10
2022-11-20T10:32:03.290Z,3.83
2022-11-20T10:34:36.087Z,4.68
2022-11-20T10:37:15.635Z,4.03
2022-11-20T10:39:57.639Z,5.63
2022-11-20T10:42:35.517Z,4.72
2022-11-20T10:45:32.369Z,4.80
2022-11-20T10:48:22.367Z,3.67
2022-11-20T10:51:14.495Z,4.88
2022-11-20T10:54:13.350Z,4.00
2022-11-20T10:56:50.100Z,4.72
2022-11-20T10:59:36.647Z,5.43
2022-11-20T11:02:17.762Z,4.75
2022-11-20T11:04:48.300Z,5.47
2022-11-20T11:07:38.585Z,3.75
2022-11-20T11:10:24.231Z,4.03
2022-11-20T11:12:51.041Z,3.55
2022-11-20T11:15:28.814Z,3.80
2022-11-20T11:17:55.876Z,4.07
2022-11-20T11:20:25.823Z,4.30
2022-11-20T11:22:55.985Z,5.27
2022-11-20T11:25:36.204Z,3.38
2022-11-20T11:28:18.137Z,4.35
2022-11-20T11:30:45.642Z,4.43
2022-11-20T11:33:19.960Z,4.82
2022-11-20T11:35:51.545Z,3.60
2022-11-20T11:38:24.817Z,3.80
2022-11-20T11:40:55.571Z,3.97
2022-11-20T11:43:44.984Z,4.00
2022-11-20T11:46:33.925Z,4.78
2022-11-20T11:49:02.122Z,4.68
2022-11-20T11:52:06.206Z,3.42
2022-11-20T11:54:54.051Z,3.58
2022-11-20T11:57:23.903Z,4.75
2022-11-20T12:00:09.697Z,5.05
2022-11-20T12:02:45.886Z,20.50
2022-11-20T12:05:26.812Z,39.58
2022-11-20T12:08:05.078Z,27.40
2022-11-20T12:10:56.821Z,24.98
2022-11-20T12:13:41.681Z,28.15
2022-11-20T12:16:14.109Z,26.13
2022-11-20T12:18:41.898Z,22.95
2022-11-20T12:21:29.067Z,22.50
2022-11-20T12:24:20.434Z,21.50
2022-11-20T12:27:02.287Z,23.05
2022-11-20T12:29:43.799Z,24.10
2022-11-20T12:32:16.675Z,17.77
2022-11-20T12:34:56.031Z,18.98
2022-11-20T12:37:49.283Z,19.33
2022-11-20T12:40:32.998Z,23.75
2022-11-20T12:43:29.979Z,30.05
2022-11-20T12:46:07.021Z,33.60
2022-11-20T12:48:46.580Z,37.85
2022-11-20T12:51:28.727Z,38.13
2022-11-20T12:54:41.125Z,34.42
2022-11-20T12:57:24.185Z,33.35
2022-11-20T13:00:14.738Z,36.92
2022-11-20T13:02:56.175Z,33.90
2022-11-20T13:05:25.787Z,32.50
2022-11-20T13:07:54.898Z,33.35
2022-11-20T13:10:40.562Z,33.33
2022-11-20T13:13:30.138Z,27.95
2022-11-20T13:16:00.290Z,33.13
2022-11-20T13:18:28.270Z,28.75
2022-11-20T13:20:55.138Z,28.25
2022-11-20T13:23:26.775Z,27.02
2022-11-20T13:26:15.774Z,24.52
2022-11-20T13:28:42.867Z,28.92
2022-11-20T13:31:31.386Z,26.67
2022-11-20T13:34:00.400Z,23.75
2022-11-20T13:36:29.134Z,23.02
2022-11-20T13:38:57.307Z,21.88
2022-11-20T13:41:36.291Z,23.33
2022-11-20T13:44:14.478Z,21.33
2022-11-20T13:46:44.853Z,21.20
2022-11-20T13:49:27.163Z,20.13
2022-11-20T13:52:21.519Z,19.02
2022-11-20T13:55:35.571Z,19.60
2022-11-20T13:58:02.223Z,16.85
2022-11-20T14:00:29.100Z,17.58
2022-11-20T14:03:18.242Z,19.38
2022-11-20T14:06:00.889Z,17.73
2022-11-20T14:08:40.859Z,16.27
2022-11-20T14:11:27.123Z,16.77
2022-11-20T14:14:17.024Z,15.50
2022-11-20T14:16:46.698Z,13.10
2022-11-20T14:19:25.973Z,13.07
2022-11-20T14:22:17.182Z,13.07
2022-11-20T14:24:44.071Z,15.07
2022-11-20T14:27:22.379Z,13.85
2022-11-20T14:29:51.537Z,13.10
2022-11-20T14:32:20.230Z,11.88
2022-11-20T14:34:50.406Z,12.27
2022-11-20T14:37:28.081Z,9.47
2022-11-20T14:39:56.414Z,11.70
2022-11-20T14:42:25.720Z,9.95
2022-11-20T14:44:56.225Z,10.50
2022-11-20T14:47:27.127Z,9.70
2022-11-20T14:49:55.766Z,10.40
2022-11-20T14:52:24.784Z,10.80
2022-11-20T14:54:56.772Z,8.93
2022-11-20T14:57:34.047Z,9.52
2022-11-20T15:00:21.327Z,11.00
2022-11-20T15:02:52.615Z,9.77
2022-11-20T15:05:26.262Z,9.20
2022-11-20T15:08:09.754Z,7.80
2022-11-20T15:10:36.630Z,8.93
2022-11-20T15:13:15.314Z,10.23
2022-11-20T15:15:50.594Z,8.60
2022-11-20T15:18:23.596Z,8.05
2022-11-20T15:20:50.893Z,6.67
2022-11-20T15:23:19.548Z,8.27
2022-11-20T15:25:48.161Z,7.32
2022-11-20T15:28:25.985Z,7.03
2022-11-20T15:30:53.374Z,9.23
2022-11-20T15:33:20.281Z,7.70
2022-11-20T15:35:47.166Z,6.65
2022-11-20T15:38:14.144Z,7.38
2022-11-20T15:40:41.104Z,6.88
2022-11-20T15:43:13.341Z,7.75
2022-11-20T15:45:45.841Z,6.38
2022-11-20T15:48:16.846Z,6.17
2022-11-20T15:51:12.882Z,6.28
2022-11-20T15:53:41.785Z,6.90
2022-11-20T15:56:15.622Z,6.22
2022-11-20T15:58:42.802Z,5.82
2022-11-20T16:01:13.909Z,7.18
2022-11-20T16:03:40.806Z,6.95
2022-11-20T16:06:07.949Z,7.15
2022-11-20T16:08:34.804Z,6.65
2022-11-20T16:11:01.925Z,7.57
2022-11-20T16:13:47.662Z,5.82
2022-11-20T16:16:22.098Z,5.53
2022-11-20T16:18:49.525Z,8.35
2022-11-20T16:21:16.779Z,5.45
2022-11-20T16:23:43.674Z,5.60
2022-11-20T16:26:15.247Z,4.30
2022-11-20T16:28:42.258Z,5.25
2022-11-20T16:31:19.964Z,6.55
2022-11-20T16:33:51.775Z,6.28
2022-11-20T16:36:19.805Z,5.20
2022-11-20T16:38:46.758Z,5.75
2022-11-20T16:41:16.423Z,5.53
2022-11-20T16:43:48.276Z,6.25
2022-11-20T16:46:15.986Z,5.60
2022-11-20T16:48:42.853Z,4.18
2022-11-20T16:51:11.767Z,5.88
2022-11-20T16:53:39.720Z,7.60
2022-11-20T16:56:17.065Z,4.93
2022-11-20T16:58:44.821Z,6.57
2022-11-20T17:01:15.359Z,6.03
2022-11-20T17:03:43.591Z,6.90
2022-11-20T17:06:14.196Z,5.75
2022-11-20T17:08:41.262Z,6.78
2022-11-20T17:11:10.438Z,5.20
2022-11-20T17:13:39.976Z,5.80
2022-11-20T17:16:10.241Z,6.20
2022-11-20T17:18:37.034Z,5.60
2022-11-20T17:21:05.412Z,5.67
2022-11-20T17:23:35.228Z,5.53
2022-11-20T17:26:03.746Z,6.05
2022-11-20T17:28:31.893Z,4.88
2022-11-20T17:31:03.418Z,5.37
2022-11-20T17:33:30.171Z,5.07
2022-11-20T17:35:57.128Z,6.25
2022-11-20T17:38:24.302Z,4.53
2022-11-20T17:40:51.019Z,5.57
2022-11-20T17:43:17.846Z,6.28
2022-11-20T17:45:45.044Z,5.45
2022-11-20T17:48:12.670Z,5.45
2022-11-20T17:50:39.484Z,5.55
2022-11-20T17:53:07.457Z,6.18
2022-11-20T17:55:55.837Z,6.83
2022-11-20T17:58:22.894Z,5.87
2022-11-20T18:00:49.692Z,5.55
2022-11-20T18:03:16.559Z,5.70
2022-11-20T18:05:43.279Z,5.10
2022-11-20T18:08:10.140Z,4.35
2022-11-20T18:10:36.930Z,6.88
2022-11-20T18:13:03.784Z,5.95
2022-11-20T18:15:30.542Z,5.72
2022-11-20T18:17:57.354Z,5.82
2022-11-20T18:20:30.346Z,5.95
2022-11-20T18:22:59.951Z,6.32
2022-11-20T18:25:26.697Z,4.85
2022-11-20T18:27:53.531Z,5.55
2022-11-20T18:30:20.337Z,5.45
2022-11-20T18:32:47.178Z,6.95
2022-11-20T18:35:14.021Z,6.40
2022-11-20T18:37:40.812Z,6.43
2022-11-20T18:40:08.387Z,5.67
2022-11-20T18:42:55.318Z,6.65
2022-11-20T18:45:22.199Z,5.38
2022-11-20T18:47:48.962Z,6.60
2022-11-20T18:50:15.712Z,5.60
2022-11-20T18:52:44.540Z,6.07
2022-11-20T18:55:12.574Z,4.90
2022-11-20T18:57:39.419Z,7.07
2022-11-20T19:00:10.008Z,6.53
2022-11-20T19:02:41.565Z,5.82
2022-11-20T19:05:11.091Z,4.55
2022-11-20T19:07:38.044Z,6.88
2022-11-20T19:10:06.089Z,5.65
2022-11-20T19:12:32.910Z,6.40
2022-11-20T19:14:59.680Z,5.93
2022-11-20T19:17:26.473Z,5.30
2022-11-20T19:19:54.800Z,4.93
2022-11-20T19:22:22.093Z,5.32
2022-11-20T19:24:49.363Z,5.32
2022-11-20T19:27:16.158Z,6.37
2022-11-20T19:29:43.018Z,5.32
2022-11-20T19:32:09.842Z,3.95
2022-11-20T19:34:37.028Z,4.78
2022-11-20T19:37:05.177Z,4.93
2022-11-20T19:39:31.980Z,5.15
2022-11-20T19:41:58.731Z,3.93
2022-11-20T19:44:25.524Z,6.30
2022-11-20T19:46:52.368Z,4.70
2022-11-20T19:49:19.166Z,5.93
2022-11-20T19:51:48.207Z,5.32
2022-11-20T19:54:15.559Z,4.97
2022-11-20T19:56:42.403Z,6.43
2022-11-20T19:59:09.273Z,5.22
2022-11-20T20:01:36.148Z,4.25
2022-11-20T20:04:05.223Z,4.75
2022-11-20T20:06:33.770Z,3.92
2022-11-20T20:09:06.529Z,5.63
2022-11-20T20:11:34.823Z,5.05
2022-11-20T20:14:07.511Z,4.43
2022-11-20T20:16:35.221Z,4.88
2022-11-20T20:19:03.873Z,4.88
2022-11-20T20:21:34.965Z,3.45
2022-11-20T20:24:01.972Z,4.45
2022-11-20T20:26:31.089Z,4.97
2022-11-20T20:28:58.170Z,4.93
2022-11-20T20:31:27.606Z,5.32
2022-11-20T20:33:55.227Z,4.35
2022-11-20T20:36:23.564Z,4.60
2022-11-20T20:38:55.139Z,4.75
2022-11-20T20:41:24.631Z,3.67
2022-11-20T20:44:11.094Z,5.28
2022-11-20T20:46:38.082Z,4.35
2022-11-20T20:49:04.898Z,3.85
2022-11-20T20:51:31.938Z,3.15
2022-11-20T20:53:59.416Z,4.07
2022-11-20T20:56:26.259Z,3.53
2022-11-20T20:58:53.044Z,3.72
2022-11-20T21:01:20.735Z,3.97
2022-11-20T21:03:47.523Z,3.13
2022-11-20T21:06:14.676Z,2.85
2022-11-20T21:08:44.297Z,2.85
2022-11-20T21:11:14.123Z,3.92
2022-11-20T21:13:42.941Z,3.28
2022-11-20T21:16:10.522Z,2.92
2022-11-20T21:18:37.685Z,4.10
2022-11-20T21:21:24.474Z,3.30
2022-11-20T21:23:53.266Z,3.67
2022-11-20T21:26:20.832Z,3.90
2022-11-20T21:28:47.606Z,3.60
2022-11-20T21:31:18.257Z,4.72
2022-11-20T21:33:46.736Z,3.25
2022-11-20T21:36:19.978Z,4.00
2022-11-20T21:38:47.202Z,4.32
2022-11-20T21:41:15.442Z,3.40
2022-11-20T21:43:42.909Z,3.33
2022-11-20T21:46:12.570Z,3.45
2022-11-20T21:48:41.017Z,3.28
2022-11-20T21:51:19.874Z,2.90
2022-11-20T21:53:48.193Z,3.58
2022-11-20T21:56:20.234Z,4.43
2022-11-20T21:58:48.556Z,2.30
2022-11-20T22:01:20.203Z,3.75
2022-11-20T22:03:52.745Z,3.25
2022-11-20T22:06:20.719Z,2.90
2022-11-20T22:08:48.684Z,3.65
2022-11-20T22:11:18.450Z,3.05
2022-11-20T22:14:14.751Z,3.38
2022-11-20T22:16:41.633Z,3.40
2022-11-20T22:19:08.494Z,4.38
2022-11-20T22:21:35.701Z,3.45
2022-11-20T22:24:02.705Z,4.10
2022-11-20T22:26:33.961Z,3.15
2022-11-20T22:29:04.352Z,3.85
2022-11-20T22:31:31.864Z,2.75
2022-11-20T22:34:01.236Z,3.45
2022-11-20T22:36:29.510Z,2.92
2022-11-20T22:38:57.116Z,2.63
2022-11-20T22:41:28.499Z,2.63
2022-11-20T22:44:00.378Z,3.33
2022-11-20T22:46:29.469Z,3.00
2022-11-20T22:48:58.460Z,3.30
2022-11-20T22:51:33.108Z,3.10
2022-11-20T22:54:00.758Z,2.88
2022-11-20T22:56:28.813Z,3.10
2022-11-20T22:58:56.114Z,3.80
2022-11-20T23:01:28.130Z,2.58
2022-11-20T23:04:02.780Z,3.17
2022-11-20T23:06:30.458Z,2.47
2022-11-20T23:08:57.393Z,1.83
2022-11-20T23:11:27.058Z,3.88
2022-11-20T23:13:59.201Z,2.57
2022-11-20T23:16:27.731Z,2.97
2022-11-20T23:19:01.566Z,3.72
2022-11-20T23:21:28.706Z,2.45
2022-11-20T23:23:57.233Z,3.05
2022-11-20T23:26:27.440Z,2.78
2022-11-20T23:28:56.344Z,3.28
2022-11-20T23:31:23.673Z,2.55
2022-11-20T23:33:50.961Z,3.20
2022-11-20T23:36:18.153Z,3.45
2022-11-20T23:38:44.895Z,3.47
2022-11-20T23:41:12.690Z,2.83
2022-11-20T23:43:39.663Z,2.90
2022-11-20T23:46:06.886Z,2.22
2022-11-20T23:48:35.914Z,2.85
2022-11-20T23:51:03.932Z,2.90
2022-11-20T23:53:31.045Z,3.40
2022-11-20T23:56:00.248Z,2.90
2022-11-20T23:58:32.050Z,2.50
